createdAt,value
2022-11-20T00:01:49.639Z,4.38
2022-11-20T00:05:13.037Z,4.50
2022-11-20T00:08:35.390Z,3.75
2022-11-20T00:11:57.154Z,3.80
2022-11-20T00:15:19.284Z,3.95
2022-11-20T00:18:40.869Z,3.83
2022-11-20T00:22:03.976Z,3.97
2022-11-20T00:25:25.455Z,4.22
2022-11-20T00:28:53.620Z,4.50
2022-11-20T00:32:15.549Z,4.88
2022-11-20T00:35:37.722Z,3.63
2022-11-20T00:39:02.032Z,3.90
2022-11-20T00:42:24.120Z,4.38
2022-11-20T00:45:46.226Z,4.72
2022-11-20T00:49:08.327Z,3.83
2022-11-20T00:52:30.011Z,4.38
2022-11-20T00:55:57.655Z,4.78
2022-11-20T00:59:20.074Z,4.47
2022-11-20T01:02:42.352Z,3.90
2022-11-20T01:06:05.241Z,3.78
2022-11-20T01:09:26.976Z,3.45
2022-11-20T01:13:10.566Z,4.15
2022-11-20T01:16:34.154Z,3.53
2022-11-20T01:19:55.925Z,4.90
2022-11-20T01:23:18.024Z,5.10
2022-11-20T01:26:41.939Z,4.38
2022-11-20T01:30:06.053Z,4.45
2022-11-20T01:33:28.365Z,4.97
2022-11-20T01:36:51.110Z,4.90
2022-11-20T01:40:14.112Z,4.68
2022-11-20T01:43:36.009Z,4.40
2022-11-20T01:47:01.540Z,4.40
2022-11-20T01:50:26.830Z,3.35
2022-11-20T01:53:49.299Z,5.32
2022-11-20T01:57:14.337Z,3.70
2022-11-20T02:00:36.385Z,4.15
2022-11-20T02:04:01.324Z,5.00
2022-11-20T02:07:25.348Z,3.80
2022-11-20T02:10:47.455Z,5.78
2022-11-20T02:14:10.125Z,5.60
2022-11-20T02:17:32.120Z,6.40
2022-11-20T02:21:04.351Z,5.45
2022-11-20T02:24:27.645Z,7.50
2022-11-20T02:27:50.251Z,6.95
2022-11-20T02:31:12.287Z,7.03
2022-11-20T02:34:34.482Z,6.25
2022-11-20T02:37:58.977Z,6.57
2022-11-20T02:41:22.246Z,6.40
2022-11-20T02:44:44.488Z,6.13
2022-11-20T02:48:08.546Z,6.63
2022-11-20T02:51:30.855Z,7.57
2022-11-20T02:54:52.863Z,6.22
2022-11-20T02:58:16.296Z,6.22
2022-11-20T03:01:38.320Z,6.97
2022-11-20T03:05:02.626Z,6.22
2022-11-20T03:08:24.403Z,7.18
2022-11-20T03:11:46.529Z,8.27
2022-11-20T03:15:11.616Z,6.38
2022-11-20T03:18:33.665Z,6.68
2022-11-20T03:21:55.130Z,6.95
2022-11-20T03:25:17.510Z,6.85
2022-11-20T03:28:39.488Z,7.50
2022-11-20T03:32:02.597Z,7.40
2022-11-20T03:35:24.393Z,7.55
2022-11-20T03:38:46.928Z,6.32
2022-11-20T03:42:28.953Z,5.95
2022-11-20T03:45:50.972Z,5.57
2022-11-20T03:49:13.876Z,5.38
2022-11-20T03:52:35.686Z,6.75
2022-11-20T03:55:57.681Z,7.00
2022-11-20T03:59:19.753Z,6.32
2022-11-20T04:02:41.723Z,8.27
2022-11-20T04:06:07.184Z,6.05
2022-11-20T04:09:29.186Z,8.98
2022-11-20T04:12:50.883Z,6.82
2022-11-20T04:16:12.815Z,7.05
2022-11-20T04:19:34.349Z,7.75
2022-11-20T04:22:57.968Z,7.63
2022-11-20T04:26:19.803Z,8.07
2022-11-20T04:29:41.415Z,6.85
2022-11-20T04:33:03.302Z,6.63
2022-11-20T04:36:27.111Z,5.95
2022-11-20T04:39:50.657Z,6.28
2022-11-20T04:43:12.568Z,5.53
2022-11-20T04:46:37.171Z,8.65
2022-11-20T04:49:59.257Z,6.28
2022-11-20T04:53:21.791Z,7.50
2022-11-20T04:56:44.915Z,7.88
2022-11-20T05:00:08.149Z,5.25
2022-11-20T05:03:29.852Z,5.18
2022-11-20T05:06:52.247Z,5.95
2022-11-20T05:10:14.150Z,5.97
2022-11-20T05:13:37.895Z,6.63
2022-11-20T05:16:59.555Z,6.10
2022-11-20T05:20:21.928Z,6.68
2022-11-20T05:23:44.109Z,5.93
2022-11-20T05:27:05.851Z,6.30
2022-11-20T05:30:29.370Z,6.40
2022-11-20T05:33:50.930Z,5.80
2022-11-20T05:37:12.553Z,4.65
2022-11-20T05:40:34.718Z,5.88
2022-11-20T05:43:58.946Z,6.72
2022-11-20T05:47:22.706Z,5.88
2022-11-20T05:50:44.432Z,5.72
2022-11-20T05:54:06.591Z,5.82
2022-11-20T05:57:28.656Z,4.80
2022-11-20T06:00:50.713Z,5.05
2022-11-20T06:04:14.090Z,4.25
2022-11-20T06:07:36.062Z,5.68
2022-11-20T06:10:58.105Z,6.15
2022-11-20T06:14:20.065Z,6.57
2022-11-20T06:17:41.666Z,5.85
2022-11-20T06:21:07.265Z,4.50
2022-11-20T06:24:28.676Z,3.60
2022-11-20T06:27:50.684Z,4.80
2022-11-20T06:31:14.550Z,5.32
2022-11-20T06:34:36.189Z,4.15
2022-11-20T06:37:59.565Z,4.45
2022-11-20T06:41:23.242Z,4.75
2022-11-20T06:44:44.798Z,4.85
2022-11-20T06:48:06.741Z,6.47
2022-11-20T06:51:28.558Z,4.75
2022-11-20T06:54:51.969Z,4.53
2022-11-20T06:58:13.732Z,4.25
2022-11-20T07:01:36.458Z,5.25
2022-11-20T07:04:58.179Z,4.93
2022-11-20T07:08:20.274Z,4.10
2022-11-20T07:11:43.728Z,4.60
2022-11-20T07:15:06.663Z,5.90
2022-11-20T07:18:28.564Z,5.43
2022-11-20T07:21:50.754Z,5.40
2022-11-20T07:25:12.973Z,5.65
2022-11-20T07:28:36.762Z,4.88
2022-11-20T07:31:58.752Z,3.20
2022-11-20T07:35:21.253Z,5.15
2022-11-20T07:38:43.099Z,6.25
2022-11-20T07:42:05.247Z,5.05
2022-11-20T07:45:28.420Z,5.43
2022-11-20T07:48:50.242Z,6.72
2022-11-20T07:52:12.548Z,5.55
2022-11-20T07:55:35.550Z,4.70
2022-11-20T07:58:57.067Z,3.80
2022-11-20T08:02:20.351Z,4.97
2022-11-20T08:05:42.478Z,7.53
2022-11-20T08:09:04.445Z,3.53
2022-11-20T08:12:44.123Z,3.45
2022-11-20T08:16:06.863Z,2.80
2022-11-20T08:19:30.690Z,3.42
2022-11-20T08:22:54.319Z,3.40
2022-11-20T08:26:16.354Z,3.28
2022-11-20T08:29:38.343Z,3.55
2022-11-20T08:33:04.461Z,2.97
2022-11-20T08:36:30.440Z,5.80
2022-11-20T08:39:53.794Z,12.48
2022-11-20T08:43:15.394Z,5.18
2022-11-20T08:46:39.225Z,9.32
2022-11-20T08:50:01.027Z,5.57
2022-11-20T08:53:24.333Z,3.83
2022-11-20T08:56:46.178Z,4.22
2022-11-20T09:00:10.338Z,5.13
2022-11-20T09:03:35.052Z,4.60
2022-11-20T09:06:56.927Z,5.60
2022-11-20T09:10:24.604Z,3.53
2022-11-20T09:13:46.880Z,5.50
2022-11-20T09:17:09.024Z,5.13
2022-11-20T09:20:32.185Z,4.35
2022-11-20T09:23:54.132Z,6.63
2022-11-20T09:27:21.738Z,5.38
2022-11-20T09:30:43.952Z,8.77
2022-11-20T09:34:06.085Z,9.57
2022-11-20T09:37:28.066Z,3.95
2022-11-20T09:40:59.510Z,3.88
2022-11-20T09:44:39.024Z,7.63
2022-11-20T09:48:24.002Z,10.02
2022-11-20T09:51:56.015Z,6.68
2022-11-20T09:55:19.170Z,11.38
2022-11-20T09:58:44.213Z,7.47
2022-11-20T10:02:22.215Z,6.47
2022-11-20T10:05:47.720Z,4.65
2022-11-20T10:09:23.967Z,4.35
2022-11-20T10:13:03.989Z,3.92
2022-11-20T10:16:39.479Z,3.95
2022-11-20T10:20:18.446Z,3.33
2022-11-20T10:24:14.135Z,3.40
2022-11-20T10:27:51.112Z,3.45
2022-11-20T10:31:28.871Z,3.92
2022-11-20T10:34:55.453Z,3.90
2022-11-20T10:38:24.649Z,3.92
2022-11-20T10:41:51.681Z,4.45
2022-11-20T10:45:24.059Z,4.35
2022-11-20T10:48:47.772Z,4.03
2022-11-20T10:52:18.728Z,3.67
2022-11-20T10:55:47.624Z,3.60
2022-11-20T10:59:37.577Z,5.65
2022-11-20T11:03:03.505Z,4.25
2022-11-20T11:06:37.620Z,4.55
2022-11-20T11:09:59.929Z,4.75
2022-11-20T11:13:25.354Z,5.07
2022-11-20T11:16:53.145Z,5.00
2022-11-20T11:20:19.417Z,5.07
2022-11-20T11:23:43.067Z,4.20
2022-11-20T11:27:10.131Z,6.55
2022-11-20T11:30:50.318Z,12.05
2022-11-20T11:34:16.168Z,6.25
2022-11-20T11:37:40.234Z,5.60
2022-11-20T11:41:03.003Z,4.57
2022-11-20T11:44:48.246Z,4.55
2022-11-20T11:48:11.854Z,5.15
2022-11-20T11:51:40.178Z,4.65
2022-11-20T11:55:11.474Z,4.15
2022-11-20T11:58:46.378Z,4.57
2022-11-20T12:02:26.393Z,4.88
2022-11-20T12:05:53.467Z,6.72
2022-11-20T12:09:15.438Z,5.10
2022-11-20T12:12:42.564Z,6.72
2022-11-20T12:16:06.232Z,4.72
2022-11-20T12:19:31.521Z,5.65
2022-11-20T12:23:01.952Z,5.60
2022-11-20T12:26:41.877Z,4.30
2022-11-20T12:30:10.617Z,4.47
2022-11-20T12:33:57.865Z,4.10
2022-11-20T12:37:32.452Z,4.80
2022-11-20T12:41:03.339Z,5.68
2022-11-20T12:44:59.232Z,7.60
2022-11-20T12:48:46.484Z,5.93
2022-11-20T12:52:23.402Z,6.07
2022-11-20T12:55:52.397Z,10.73
2022-11-20T12:59:40.984Z,8.10
2022-11-20T13:03:26.671Z,12.93
2022-11-20T13:06:49.171Z,7.13
2022-11-20T13:10:19.941Z,12.70
2022-11-20T13:13:55.955Z,11.30
2022-11-20T13:17:26.048Z,11.50
2022-11-20T13:20:49.301Z,12.55
2022-11-20T13:24:25.462Z,6.22
2022-11-20T13:27:50.267Z,6.35
2022-11-20T13:31:30.962Z,6.82
2022-11-20T13:34:59.038Z,10.00
2022-11-20T13:38:20.803Z,9.90
2022-11-20T13:41:43.792Z,9.77
2022-11-20T13:45:13.049Z,5.88
2022-11-20T13:48:40.627Z,4.60
2022-11-20T13:52:31.365Z,4.03
2022-11-20T13:56:00.587Z,4.43
2022-11-20T13:59:44.105Z,3.58
2022-11-20T14:03:15.870Z,5.75
2022-11-20T14:06:43.755Z,5.25
2022-11-20T14:10:08.168Z,4.53
2022-11-20T14:13:30.054Z,4.65
2022-11-20T14:16:52.915Z,4.78
2022-11-20T14:20:19.921Z,4.68
2022-11-20T14:23:41.904Z,5.95
2022-11-20T14:27:06.018Z,5.70
2022-11-20T14:30:30.593Z,4.90
2022-11-20T14:33:53.295Z,5.70
2022-11-20T14:37:21.690Z,4.32
2022-11-20T14:40:44.458Z,6.28
2022-11-20T14:44:11.483Z,5.20
2022-11-20T14:47:34.459Z,6.35
2022-11-20T14:50:56.436Z,7.95
2022-11-20T14:54:20.867Z,5.45
2022-11-20T14:57:43.232Z,5.18
2022-11-20T15:01:08.833Z,4.78
2022-11-20T15:04:30.923Z,7.25
2022-11-20T15:07:55.090Z,5.22
2022-11-20T15:11:20.651Z,4.43
2022-11-20T15:14:42.618Z,4.63
2022-11-20T15:18:06.533Z,5.88
2022-11-20T15:21:28.502Z,6.25
2022-11-20T15:24:50.588Z,4.75
2022-11-20T15:28:20.198Z,4.68
2022-11-20T15:31:44.444Z,4.60
2022-11-20T15:35:11.560Z,4.72
2022-11-20T15:38:34.048Z,5.22
2022-11-20T15:41:58.305Z,6.63
2022-11-20T15:45:20.376Z,6.68
2022-11-20T15:48:48.861Z,6.47
2022-11-20T15:52:13.154Z,6.68
2022-11-20T15:55:35.374Z,4.80
2022-11-20T15:58:57.417Z,7.28
2022-11-20T16:02:19.709Z,7.95
2022-11-20T16:05:41.688Z,5.63
2022-11-20T16:09:05.248Z,9.73
2022-11-20T16:12:44.985Z,6.18
2022-11-20T16:16:11.178Z,10.85
2022-11-20T16:19:33.011Z,12.55
2022-11-20T16:22:54.630Z,7.18
2022-11-20T16:26:19.988Z,12.57
2022-11-20T16:29:42.142Z,6.45
2022-11-20T16:33:05.343Z,8.45
2022-11-20T16:36:28.521Z,8.15
2022-11-20T16:39:50.483Z,10.18
2022-11-20T16:43:16.189Z,9.10
2022-11-20T16:46:40.932Z,6.60
2022-11-20T16:50:03.177Z,9.45
2022-11-20T16:53:25.319Z,7.65
2022-11-20T16:56:48.128Z,21.55
2022-11-20T17:00:12.764Z,22.23
2022-11-20T17:03:34.607Z,15.80
2022-11-20T17:06:56.770Z,14.07
2022-11-20T17:10:18.886Z,12.90
2022-11-20T17:13:41.418Z,11.52
2022-11-20T17:17:05.077Z,9.75
2022-11-20T17:20:26.886Z,22.42
2022-11-20T17:23:49.302Z,12.55
2022-11-20T17:27:11.109Z,18.75
2022-11-20T17:30:33.075Z,13.10
2022-11-20T17:33:56.606Z,6.85
2022-11-20T17:37:18.713Z,21.50
2022-11-20T17:40:40.564Z,15.88
2022-11-20T17:44:03.527Z,8.35
2022-11-20T17:47:26.029Z,5.93
2022-11-20T17:50:49.583Z,7.75
2022-11-20T17:54:12.442Z,7.60
2022-11-20T17:57:52.146Z,11.00
2022-11-20T18:01:14.599Z,7.68
2022-11-20T18:04:36.290Z,12.13
2022-11-20T18:07:59.964Z,21.67
2022-11-20T18:11:24.173Z,11.40
2022-11-20T18:14:45.780Z,10.32
2022-11-20T18:18:07.990Z,9.57
2022-11-20T18:21:31.696Z,8.73
2022-11-20T18:24:55.366Z,15.40
2022-11-20T18:28:19.939Z,16.15
2022-11-20T18:31:42.923Z,12.50
2022-11-20T18:35:05.939Z,9.00
2022-11-20T18:38:27.755Z,10.25
2022-11-20T18:42:08.427Z,9.40
2022-11-20T18:45:30.542Z,9.73
2022-11-20T18:48:53.207Z,14.52
2022-11-20T18:52:15.265Z,19.92
2022-11-20T18:55:37.544Z,11.57
2022-11-20T18:59:01.935Z,17.85
2022-11-20T19:02:24.319Z,5.80
2022-11-20T19:05:46.104Z,8.25
2022-11-20T19:09:10.236Z,10.15
2022-11-20T19:12:32.064Z,8.35
2022-11-20T19:15:55.412Z,8.68
2022-11-20T19:19:17.633Z,7.80
2022-11-20T19:22:39.618Z,7.75
2022-11-20T19:26:01.675Z,6.22
2022-11-20T19:29:25.813Z,9.95
2022-11-20T19:32:50.267Z,8.68
2022-11-20T19:36:14.038Z,6.97
2022-11-20T19:39:36.478Z,7.63
2022-11-20T19:42:58.326Z,7.07
2022-11-20T19:46:21.143Z,6.78
2022-11-20T19:49:44.739Z,6.60
2022-11-20T19:53:07.601Z,8.27
2022-11-20T19:56:31.086Z,7.97
2022-11-20T19:59:53.519Z,6.90
2022-11-20T20:03:15.842Z,7.43
2022-11-20T20:06:40.381Z,7.15
2022-11-20T20:10:02.231Z,6.80
2022-11-20T20:13:24.953Z,6.10
2022-11-20T20:16:47.025Z,7.07
2022-11-20T20:20:10.142Z,6.00
2022-11-20T20:23:33.777Z,6.32
2022-11-20T20:26:58.289Z,6.82
2022-11-20T20:30:21.140Z,5.03
2022-11-20T20:33:46.680Z,5.45
2022-11-20T20:37:08.959Z,6.10
2022-11-20T20:40:32.527Z,5.93
2022-11-20T20:44:12.614Z,6.68
2022-11-20T20:47:35.862Z,6.53
2022-11-20T20:50:58.969Z,5.75
2022-11-20T20:54:21.370Z,5.75
2022-11-20T20:57:44.864Z,6.55
2022-11-20T21:01:08.384Z,5.45
2022-11-20T21:04:30.331Z,6.75
2022-11-20T21:08:10.119Z,6.65
2022-11-20T21:11:32.197Z,6.47
2022-11-20T21:14:55.565Z,6.40
2022-11-20T21:18:18.587Z,5.45
2022-11-20T21:22:00.685Z,5.90
2022-11-20T21:25:22.796Z,5.60
2022-11-20T21:28:45.102Z,5.43
2022-11-20T21:32:08.314Z,5.72
2022-11-20T21:35:30.186Z,5.72
2022-11-20T21:38:53.370Z,6.05
2022-11-20T21:42:17.653Z,5.35
2022-11-20T21:45:39.630Z,6.93
2022-11-20T21:49:06.541Z,4.10
2022-11-20T21:52:28.596Z,6.15
2022-11-20T21:55:55.173Z,4.53
2022-11-20T21:59:16.649Z,4.90
2022-11-20T22:02:39.964Z,4.40
2022-11-20T22:06:03.407Z,5.07
2022-11-20T22:09:25.356Z,5.53
2022-11-20T22:12:47.459Z,4.95
2022-11-20T22:16:08.491Z,5.07
2022-11-20T22:19:30.407Z,5.72
2022-11-20T22:22:53.389Z,5.50
2022-11-20T22:26:16.899Z,6.00
2022-11-20T22:29:39.067Z,4.75
2022-11-20T22:33:05.774Z,4.53
2022-11-20T22:39:54.445Z,5.90
2022-11-20T22:43:16.562Z,5.20
2022-11-20T22:46:39.302Z,4.90
2022-11-20T22:50:03.402Z,4.10
2022-11-20T22:53:25.036Z,5.30
2022-11-20T22:56:49.209Z,5.30
2022-11-20T23:00:12.278Z,4.05
2022-11-20T23:03:34.463Z,4.75
2022-11-20T23:06:56.272Z,5.30
2022-11-20T23:10:18.270Z,5.22
2022-11-20T23:13:42.332Z,4.93
2022-11-20T23:17:04.164Z,4.63
2022-11-20T23:20:26.300Z,4.60
2022-11-20T23:23:50.387Z,5.13
2022-11-20T23:27:12.249Z,3.53
2022-11-20T23:30:36.337Z,5.10
2022-11-20T23:33:58.563Z,4.97
2022-11-20T23:37:20.363Z,4.90
2022-11-20T23:40:42.620Z,4.57
2022-11-20T23:44:04.707Z,6.30
2022-11-20T23:47:28.334Z,4.88
2022-11-20T23:50:50.417Z,5.35
2022-11-20T23:54:12.589Z,5.03
2022-11-20T23:57:34.737Z,4.50
